Time;durP1;ratioP1;P1;durP2;ratioP2;P2;SDS_P1;SDS_P2;PMS_P1;PMS_P2;Temp;Humidity;BMP_temperature;BMP_pressure;BME280_temperature;BME280_humidity;BME280_pressure;Samples;Min_cycle;Max_cycle;Signal;HPM_P1;HPM_P2
2024/01/02 00:01:16;;;;;;;3.37;1.20;;;7.20;99.90;;;;;;4957131;28;20258;-56
2024/01/02 00:03:41;;;;;;;3.67;1.53;;;7.20;99.90;;;;;;4957582;28;20223;-58
2024/01/02 00:06:07;;;;;;;3.50;1.43;;;7.10;99.90;;;;;;4936170;28;20260;-56
2024/01/02 00:08:32;;;;;;;4.27;1.60;;;7.20;99.90;;;;;;4953052;28;20209;-56
2024/01/02 00:10:58;;;;;;;5.63;2.23;;;7.00;99.90;;;;;;4960639;28;20190;-62
2024/01/02 00:13:23;;;;;;;5.13;1.37;;;7.10;99.90;;;;;;4944747;28;20225;-54
2024/01/02 00:15:49;;;;;;;5.17;1.43;;;7.10;99.90;;;;;;4956870;28;20213;-55
2024/01/02 00:18:14;;;;;;;5.03;2.33;;;7.00;99.90;;;;;;4961206;28;20268;-55
2024/01/02 00:20:40;;;;;;;2.93;1.73;;;7.10;99.90;;;;;;4957455;28;20201;-55
2024/01/02 00:23:05;;;;;;;3.77;1.80;;;7.30;99.90;;;;;;4958691;28;20197;-55
2024/01/02 00:25:31;;;;;;;4.73;1.70;;;7.30;99.90;;;;;;4960853;28;20223;-54
2024/01/02 00:27:57;;;;;;;4.23;1.67;;;7.40;99.90;;;;;;4956456;28;20219;-54
2024/01/02 00:30:22;;;;;;;2.10;1.40;;;7.30;99.90;;;;;;4962494;28;20213;-62
2024/01/02 00:32:48;;;;;;;4.03;1.90;;;7.40;99.90;;;;;;4959712;28;20205;-62
2024/01/02 00:35:13;;;;;;;2.30;1.57;;;7.40;99.90;;;;;;4955496;28;20263;-54
2024/01/02 00:37:39;;;;;;;4.77;1.27;;;7.30;99.90;;;;;;4954252;28;20877;-55
2024/01/02 00:40:05;;;;;;;3.93;1.70;;;7.30;99.90;;;;;;4952060;28;20237;-64
2024/01/02 00:42:31;;;;;;;4.57;1.60;;;7.30;99.90;;;;;;4939403;28;20682;-60
2024/01/02 00:44:56;;;;;;;6.80;1.80;;;7.30;99.90;;;;;;4954180;28;20221;-59
2024/01/02 00:47:22;;;;;;;6.23;2.00;;;7.30;99.90;;;;;;4954506;28;20209;-64
2024/01/02 00:49:50;;;;;;;5.43;1.73;;;7.30;99.90;;;;;;4946991;28;20205;-62
2024/01/02 00:52:15;;;;;;;3.43;1.80;;;7.20;99.90;;;;;;4957068;28;20283;-64
2024/01/02 00:54:41;;;;;;;2.70;1.57;;;7.30;99.90;;;;;;4953536;28;20695;-62
2024/01/02 00:57:07;;;;;;;3.17;1.67;;;7.30;99.90;;;;;;4941622;28;20759;-54
2024/01/02 00:59:32;;;;;;;3.23;1.47;;;7.20;99.90;;;;;;4943290;28;20191;-53
2024/01/02 01:01:58;;;;;;;4.33;1.73;;;7.20;99.90;;;;;;4957417;28;20233;-54
2024/01/02 01:04:23;;;;;;;3.83;1.70;;;7.20;99.90;;;;;;4960299;28;20212;-54
2024/01/02 01:06:49;;;;;;;3.03;1.27;;;7.20;99.90;;;;;;4957892;28;20856;-54
2024/01/02 01:09:14;;;;;;;4.97;1.60;;;7.20;99.90;;;;;;4958110;28;20229;-55
2024/01/02 01:11:40;;;;;;;4.83;1.60;;;7.20;99.90;;;;;;4952485;28;20205;-55
2024/01/02 01:14:06;;;;;;;2.50;1.50;;;7.20;99.90;;;;;;4954532;28;20233;-58
2024/01/02 01:16:31;;;;;;;2.70;1.23;;;7.10;99.90;;;;;;4960371;28;20212;-55
2024/01/02 01:18:57;;;;;;;3.83;2.00;;;7.10;99.90;;;;;;4956928;28;20210;-63
2024/01/02 01:21:22;;;;;;;1.53;1.43;;;7.10;99.90;;;;;;4956276;28;20208;-63
2024/01/02 01:23:48;;;;;;;2.23;1.43;;;7.20;99.90;;;;;;4956469;28;20202;-55
2024/01/02 01:26:13;;;;;;;3.00;1.53;;;7.10;99.90;;;;;;4957849;28;20241;-55
2024/01/02 01:28:39;;;;;;;4.53;1.87;;;7.10;99.90;;;;;;4956273;28;20315;-55
2024/01/02 01:31:04;;;;;;;4.10;1.80;;;7.10;99.90;;;;;;4953144;28;20202;-55
2024/01/02 01:33:30;;;;;;;2.07;1.57;;;7.00;99.90;;;;;;4957839;28;20739;-55
2024/01/02 01:35:55;;;;;;;4.63;2.00;;;7.00;99.90;;;;;;4956491;28;20205;-54
2024/01/02 01:38:21;;;;;;;3.57;1.50;;;7.00;99.90;;;;;;4954973;28;20210;-56
2024/01/02 01:40:46;;;;;;;2.27;1.50;;;6.90;99.90;;;;;;4959862;28;20781;-56
2024/01/02 01:43:13;;;;;;;5.43;1.63;;;6.90;99.90;;;;;;4955507;28;20213;-56
2024/01/02 01:45:39;;;;;;;3.13;1.57;;;6.90;99.90;;;;;;4961067;28;20811;-53
2024/01/02 01:48:09;;;;;;;4.33;1.83;;;6.90;99.90;;;;;;4955160;28;20205;-53
2024/01/02 01:50:36;;;;;;;3.53;1.80;;;6.90;99.90;;;;;;4974212;28;20201;-53
2024/01/02 01:53:03;;;;;;;6.33;2.20;;;6.90;99.90;;;;;;4953765;28;20392;-53
2024/01/02 01:55:29;;;;;;;3.67;1.70;;;6.90;99.90;;;;;;4943849;28;20683;-54
2024/01/02 01:57:55;;;;;;;9.33;2.77;;;6.80;99.90;;;;;;4956395;28;20574;-53
2024/01/02 02:00:21;;;;;;;3.70;2.03;;;6.80;99.90;;;;;;4956976;28;20190;-55
2024/01/02 02:02:47;;;;;;;5.33;2.17;;;6.80;99.90;;;;;;4955184;28;20568;-56
2024/01/02 02:05:12;;;;;;;10.33;2.67;;;6.80;99.90;;;;;;4942846;28;20308;-55
2024/01/02 02:07:41;;;;;;;7.97;2.30;;;6.70;99.90;;;;;;4961077;28;20276;-56
2024/01/02 02:10:08;;;;;;;6.27;2.20;;;6.50;99.90;;;;;;4958103;28;20793;-56
2024/01/02 02:12:35;;;;;;;5.80;1.80;;;6.50;99.90;;;;;;4958054;28;20201;-54
2024/01/02 02:15:01;;;;;;;7.37;1.90;;;6.60;99.90;;;;;;4955729;28;20282;-54
2024/01/02 02:17:30;;;;;;;4.83;2.03;;;6.60;99.90;;;;;;4951488;28;20684;-55
2024/01/02 02:19:56;;;;;;;6.57;1.60;;;6.50;99.90;;;;;;4951643;28;20326;-55
2024/01/02 02:22:36;;;;;;;9.47;2.07;;;6.50;99.90;;;;;;4933170;28;20209;-54
2024/01/02 02:25:03;;;;;;;6.93;2.80;;;6.40;99.90;;;;;;4954120;28;20661;-53
2024/01/02 02:27:28;;;;;;;7.70;2.10;;;6.40;99.90;;;;;;4952192;28;20210;-53
2024/01/02 02:29:54;;;;;;;10.47;2.53;;;6.40;99.90;;;;;;4934054;28;20648;-54
2024/01/02 02:32:21;;;;;;;2.83;1.60;;;6.40;99.90;;;;;;4950291;28;20231;-54
2024/01/02 02:34:47;;;;;;;10.93;2.67;;;6.30;99.90;;;;;;4930869;28;20206;-54
2024/01/02 02:37:13;;;;;;;6.17;2.03;;;6.30;99.90;;;;;;4952279;28;20998;-54
2024/01/02 02:39:38;;;;;;;5.60;1.67;;;6.30;99.90;;;;;;4933418;28;21076;-56
2024/01/02 02:42:04;;;;;;;7.53;2.13;;;6.20;99.90;;;;;;4949943;28;20221;-54
2024/01/02 02:44:31;;;;;;;7.93;2.30;;;6.20;99.90;;;;;;4932457;28;20197;-54
2024/01/02 02:47:00;;;;;;;5.13;1.97;;;6.10;99.90;;;;;;4950227;28;20543;-54
2024/01/02 02:49:26;;;;;;;5.53;3.07;;;6.10;99.90;;;;;;4949787;28;20205;-54
2024/01/02 02:51:51;;;;;;;4.47;1.83;;;6.00;99.90;;;;;;4950781;28;20535;-54
2024/01/02 02:54:17;;;;;;;7.23;2.67;;;6.00;99.90;;;;;;4952408;28;20225;-54
2024/01/02 02:56:43;;;;;;;7.90;2.33;;;5.90;99.90;;;;;;4951384;28;20208;-54
2024/01/02 02:59:12;;;;;;;3.57;1.77;;;5.90;99.90;;;;;;4952102;28;20202;-54
2024/01/02 03:01:38;;;;;;;7.63;2.43;;;5.80;99.90;;;;;;4950683;28;20595;-54
2024/01/02 03:04:04;;;;;;;6.80;1.90;;;5.90;99.90;;;;;;4939355;28;20260;-55
2024/01/02 03:06:30;;;;;;;6.40;2.10;;;6.00;99.90;;;;;;4940084;28;20259;-55
2024/01/02 03:08:55;;;;;;;11.50;2.57;;;6.00;99.90;;;;;;4950083;28;20204;-54
2024/01/02 03:11:21;;;;;;;7.83;3.17;;;6.00;99.90;;;;;;4952036;28;20600;-66
2024/01/02 03:13:47;;;;;;;6.97;2.40;;;6.00;99.90;;;;;;4954324;28;20217;-66
2024/01/02 03:16:14;;;;;;;6.87;3.03;;;5.90;99.90;;;;;;4950126;28;20198;-54
2024/01/02 03:18:39;;;;;;;4.90;2.10;;;5.80;99.90;;;;;;4952216;28;20687;-54
2024/01/02 03:21:07;;;;;;;3.70;1.90;;;5.80;99.90;;;;;;4951684;28;20216;-54
2024/01/02 03:23:34;;;;;;;14.47;2.83;;;5.80;99.90;;;;;;4950813;28;20255;-54
2024/01/02 03:25:59;;;;;;;11.67;2.30;;;5.80;99.90;;;;;;4933181;28;20204;-54
2024/01/02 03:28:25;;;;;;;6.13;2.23;;;5.70;99.90;;;;;;4952992;28;20214;-54
2024/01/02 03:30:50;;;;;;;4.73;1.57;;;5.70;99.90;;;;;;4949882;28;20205;-54
2024/01/02 03:33:15;;;;;;;7.33;2.67;;;5.60;99.90;;;;;;4952435;28;20647;-54
2024/01/02 03:35:41;;;;;;;5.03;2.33;;;5.50;99.90;;;;;;4941681;28;20210;-54
2024/01/02 03:38:06;;;;;;;8.87;1.93;;;5.60;99.90;;;;;;4952402;28;20296;-54
2024/01/02 03:40:32;;;;;;;10.93;2.60;;;5.60;99.90;;;;;;4949674;28;20638;-55
2024/01/02 03:42:58;;;;;;;4.13;2.30;;;5.60;99.90;;;;;;4952748;28;20212;-53
2024/01/02 03:45:23;;;;;;;5.20;1.90;;;5.60;99.90;;;;;;4950985;28;21025;-54
2024/01/02 03:47:49;;;;;;;5.83;2.27;;;5.50;99.90;;;;;;4949377;28;20198;-55
2024/01/02 03:50:15;;;;;;;11.33;3.00;;;5.60;99.90;;;;;;4949813;28;20270;-55
2024/01/02 03:52:40;;;;;;;11.03;3.23;;;5.50;99.90;;;;;;4949025;28;20715;-54
2024/01/02 03:55:06;;;;;;;8.53;2.43;;;5.50;99.90;;;;;;4951754;28;20282;-54
2024/01/02 03:57:34;;;;;;;10.13;3.03;;;5.50;99.90;;;;;;4956043;28;20202;-54
2024/01/02 03:59:59;;;;;;;8.37;2.40;;;5.60;99.90;;;;;;4952746;28;20209;-55
2024/01/02 04:02:25;;;;;;;7.03;2.33;;;5.60;99.90;;;;;;4938791;28;20274;-55
2024/01/02 04:04:50;;;;;;;10.33;3.27;;;5.60;99.90;;;;;;4955012;28;20936;-54
2024/01/02 04:07:16;;;;;;;11.53;2.27;;;5.50;99.90;;;;;;4948181;28;20259;-53
2024/01/02 04:09:42;;;;;;;9.77;2.53;;;5.50;99.90;;;;;;4953853;28;20212;-55
2024/01/02 04:12:07;;;;;;;6.30;2.40;;;5.50;99.90;;;;;;4952099;28;21017;-56
2024/01/02 04:14:33;;;;;;;10.00;3.43;;;5.50;99.90;;;;;;4955347;28;20214;-55
2024/01/02 04:16:58;;;;;;;9.07;2.30;;;5.50;99.90;;;;;;4954789;28;20201;-55
2024/01/02 04:19:24;;;;;;;5.60;2.47;;;5.50;99.90;;;;;;4952297;28;20198;-55
2024/01/02 04:21:49;;;;;;;9.77;2.70;;;5.50;99.90;;;;;;4952664;28;20641;-55
2024/01/02 04:24:15;;;;;;;9.00;2.27;;;5.50;99.90;;;;;;4952652;28;20210;-55
2024/01/02 04:26:41;;;;;;;6.53;2.67;;;5.50;99.90;;;;;;4937040;28;20205;-55
2024/01/02 04:29:07;;;;;;;6.13;2.07;;;5.40;99.90;;;;;;4960243;28;20263;-54
2024/01/02 04:31:32;;;;;;;8.33;2.30;;;5.40;99.90;;;;;;4952938;28;20209;-53
2024/01/02 04:33:58;;;;;;;6.37;2.20;;;5.40;99.90;;;;;;4952377;28;20213;-55
2024/01/02 04:36:25;;;;;;;8.93;3.03;;;5.40;99.90;;;;;;4952163;28;20209;-54
2024/01/02 04:38:52;;;;;;;8.10;2.27;;;5.40;99.90;;;;;;4952645;28;20307;-54
2024/01/02 04:41:18;;;;;;;4.57;1.77;;;5.40;99.90;;;;;;4953806;28;20196;-54
2024/01/02 04:43:44;;;;;;;8.23;2.60;;;5.40;99.90;;;;;;4954041;28;20202;-55
2024/01/02 04:46:10;;;;;;;7.57;3.47;;;5.40;99.90;;;;;;4954600;28;20743;-54
2024/01/02 04:48:35;;;;;;;7.20;2.70;;;5.30;99.90;;;;;;4952767;28;21301;-54
2024/01/02 04:51:02;;;;;;;8.97;2.50;;;5.30;99.90;;;;;;4952064;28;20214;-55
2024/01/02 04:53:27;;;;;;;9.40;2.47;;;5.40;99.90;;;;;;4935258;28;20214;-55
2024/01/02 04:55:53;;;;;;;8.37;3.13;;;5.50;99.90;;;;;;4947865;28;20201;-54
2024/01/02 04:58:19;;;;;;;8.30;2.47;;;5.50;99.90;;;;;;4954350;28;20679;-54
2024/01/02 05:00:44;;;;;;;7.30;2.33;;;5.50;99.90;;;;;;4954127;28;20212;-54
2024/01/02 05:03:09;;;;;;;7.37;2.23;;;5.50;99.90;;;;;;4951730;28;20970;-55
2024/01/02 05:05:35;;;;;;;8.90;2.40;;;5.50;99.90;;;;;;4934670;28;20205;-54
2024/01/02 05:08:00;;;;;;;6.50;2.80;;;5.40;99.90;;;;;;4951892;28;20315;-54
2024/01/02 05:10:26;;;;;;;8.40;2.23;;;5.40;99.90;;;;;;4953918;28;20373;-54
2024/01/02 05:12:51;;;;;;;9.30;1.93;;;5.50;99.90;;;;;;4955425;28;20549;-54
2024/01/02 05:15:17;;;;;;;5.97;1.80;;;5.40;99.90;;;;;;4953422;28;20319;-54
2024/01/02 05:17:43;;;;;;;6.57;2.47;;;5.40;99.90;;;;;;4953574;28;20253;-54
2024/01/02 05:20:09;;;;;;;7.00;2.30;;;5.30;99.90;;;;;;4943352;28;20255;-54
2024/01/02 05:22:35;;;;;;;6.10;2.30;;;5.30;99.90;;;;;;4953486;28;20216;-55
2024/01/02 05:25:01;;;;;;;5.63;2.20;;;5.20;99.90;;;;;;4953541;28;20197;-54
2024/01/02 05:27:27;;;;;;;4.13;1.80;;;5.20;99.90;;;;;;4951684;28;20201;-53
2024/01/02 05:29:52;;;;;;;11.77;2.70;;;5.20;99.90;;;;;;4956105;28;20206;-54
2024/01/02 05:32:18;;;;;;;8.93;2.03;;;5.10;99.90;;;;;;4953546;28;20823;-54
2024/01/02 05:34:43;;;;;;;2.83;2.00;;;5.10;99.90;;;;;;4951300;28;20217;-54
2024/01/02 05:37:09;;;;;;;8.43;2.30;;;5.20;99.90;;;;;;4952080;28;20205;-55
2024/01/02 05:39:34;;;;;;;5.73;2.07;;;5.20;99.90;;;;;;4937826;28;20221;-55
2024/01/02 05:42:00;;;;;;;5.80;2.33;;;5.20;99.90;;;;;;4956470;28;20201;-55
2024/01/02 05:44:26;;;;;;;4.60;2.07;;;5.20;99.90;;;;;;4939878;28;20208;-55
2024/01/02 05:46:51;;;;;;;7.00;3.07;;;5.20;99.90;;;;;;4943376;28;20802;-55
2024/01/02 05:49:17;;;;;;;4.80;2.33;;;5.20;99.90;;;;;;4956151;28;20292;-55
2024/01/02 05:51:43;;;;;;;7.47;2.03;;;5.20;99.90;;;;;;4951625;28;20311;-55
2024/01/02 05:54:08;;;;;;;4.93;1.93;;;5.20;99.90;;;;;;4956028;28;20305;-53
2024/01/02 05:56:34;;;;;;;8.07;2.57;;;5.30;99.90;;;;;;4934742;28;20200;-55
2024/01/02 05:58:59;;;;;;;10.47;2.07;;;5.30;99.90;;;;;;4953517;28;20515;-52
2024/01/02 06:01:25;;;;;;;9.13;2.00;;;5.30;99.90;;;;;;4955245;28;20679;-54
2024/01/02 06:03:50;;;;;;;7.03;1.80;;;5.30;99.90;;;;;;4955811;28;20601;-54
2024/01/02 06:06:16;;;;;;;6.83;2.33;;;5.20;99.90;;;;;;4953183;28;20214;-54
2024/01/02 06:08:42;;;;;;;11.07;3.07;;;5.20;99.90;;;;;;4956917;28;20702;-54
2024/01/02 06:11:10;;;;;;;5.53;2.30;;;5.20;99.90;;;;;;4955785;28;20199;-54
2024/01/02 06:13:35;;;;;;;3.90;1.90;;;5.20;99.90;;;;;;4953257;28;20631;-54
2024/01/02 06:16:01;;;;;;;12.60;2.07;;;5.20;99.90;;;;;;4959329;28;20687;-54
2024/01/02 06:18:26;;;;;;;5.97;1.70;;;5.20;99.90;;;;;;4954966;28;20683;-54
2024/01/02 06:20:52;;;;;;;4.70;1.87;;;5.20;99.90;;;;;;4957394;28;20963;-53
2024/01/02 06:23:17;;;;;;;8.93;2.00;;;5.20;99.90;;;;;;4957661;28;20202;-53
2024/01/02 06:25:43;;;;;;;9.17;2.40;;;5.30;99.90;;;;;;4959316;28;20634;-54
2024/01/02 06:28:08;;;;;;;7.03;2.10;;;5.30;99.90;;;;;;4958027;28;20217;-55
2024/01/02 06:30:34;;;;;;;8.00;2.60;;;5.30;99.90;;;;;;4958164;28;20228;-55
2024/01/02 06:32:59;;;;;;;8.27;2.10;;;5.30;99.90;;;;;;4955740;28;20334;-54
2024/01/02 06:35:25;;;;;;;5.50;2.37;;;5.30;99.90;;;;;;4958657;28;20244;-59
2024/01/02 06:37:50;;;;;;;7.43;2.50;;;5.20;99.90;;;;;;4956099;28;20675;-54
2024/01/02 06:40:16;;;;;;;6.60;2.43;;;5.30;99.90;;;;;;4951588;28;20591;-55
2024/01/02 06:42:41;;;;;;;8.90;2.33;;;5.30;99.90;;;;;;4950607;28;20742;-54
2024/01/02 06:45:08;;;;;;;5.80;1.80;;;5.30;99.90;;;;;;4957252;28;20212;-54
2024/01/02 06:47:33;;;;;;;5.90;1.87;;;5.30;99.90;;;;;;4951253;28;20792;-54
2024/01/02 06:49:59;;;;;;;4.77;1.70;;;5.20;99.90;;;;;;4950759;28;20201;-54
2024/01/02 06:52:24;;;;;;;4.50;1.50;;;5.20;99.90;;;;;;4958146;28;20220;-54
2024/01/02 06:54:50;;;;;;;7.03;2.07;;;5.20;99.90;;;;;;4955501;28;20225;-54
2024/01/02 06:57:15;;;;;;;7.67;2.07;;;5.20;99.90;;;;;;4939881;28;20224;-54
2024/01/02 06:59:41;;;;;;;3.43;1.63;;;5.20;99.90;;;;;;4956874;28;20201;-54
2024/01/02 07:02:07;;;;;;;6.87;2.13;;;5.20;99.90;;;;;;4959173;28;20210;-54
2024/01/02 07:04:33;;;;;;;10.63;2.90;;;5.20;99.90;;;;;;4954266;28;20283;-54
2024/01/02 07:06:58;;;;;;;4.33;2.23;;;5.20;99.90;;;;;;4951512;28;20255;-54
2024/01/02 07:09:25;;;;;;;4.73;1.80;;;5.20;99.90;;;;;;4935185;28;20206;-54
2024/01/02 07:11:50;;;;;;;5.67;2.27;;;5.20;99.90;;;;;;4941785;28;20198;-54
2024/01/02 07:14:16;;;;;;;8.70;2.50;;;5.20;99.90;;;;;;4962384;28;20254;-55
2024/01/02 07:16:42;;;;;;;5.27;2.70;;;5.20;99.90;;;;;;4955303;28;20204;-54
2024/01/02 07:19:08;;;;;;;5.70;2.90;;;5.30;99.90;;;;;;4959262;28;20258;-53
2024/01/02 07:21:33;;;;;;;7.50;2.63;;;5.30;99.90;;;;;;4956504;28;20197;-54
2024/01/02 07:23:59;;;;;;;5.00;2.70;;;5.30;99.90;;;;;;4956437;28;20314;-54
2024/01/02 07:26:24;;;;;;;3.90;2.50;;;5.30;99.90;;;;;;4957097;28;20212;-54
2024/01/02 07:28:50;;;;;;;6.07;1.93;;;5.30;99.90;;;;;;4956929;28;20668;-54
2024/01/02 07:31:15;;;;;;;2.60;1.80;;;5.30;99.90;;;;;;4957745;28;20205;-54
2024/01/02 07:33:41;;;;;;;4.73;2.47;;;5.20;99.90;;;;;;4961193;28;20489;-54
2024/01/02 07:36:07;;;;;;;5.53;2.50;;;5.30;99.90;;;;;;4970143;28;20248;-54
2024/01/02 07:38:32;;;;;;;3.67;2.27;;;5.20;99.90;;;;;;4959495;28;20251;-54
2024/01/02 07:40:58;;;;;;;6.97;2.50;;;5.20;99.90;;;;;;4959343;28;20251;-54
2024/01/02 07:43:24;;;;;;;5.53;2.17;;;5.20;99.90;;;;;;4962967;28;20300;-54
2024/01/02 07:45:49;;;;;;;5.83;2.57;;;5.20;99.90;;;;;;4956637;28;20193;-65
2024/01/02 07:48:15;;;;;;;6.97;2.00;;;5.20;99.90;;;;;;4958676;28;20209;-64
2024/01/02 07:50:41;;;;;;;4.60;2.23;;;5.20;99.90;;;;;;4933177;28;20618;-54
2024/01/02 07:53:07;;;;;;;8.73;2.63;;;5.20;99.90;;;;;;4957512;28;20761;-54
2024/01/02 07:55:32;;;;;;;3.70;1.77;;;5.20;99.90;;;;;;4957907;28;20891;-54
2024/01/02 07:57:58;;;;;;;5.00;2.10;;;5.20;99.90;;;;;;4943034;28;20198;-55
2024/01/02 08:00:24;;;;;;;4.57;2.03;;;5.20;99.90;;;;;;4958738;28;20296;-54
2024/01/02 08:02:49;;;;;;;6.60;2.00;;;5.20;99.90;;;;;;4955642;28;20209;-56
2024/01/02 08:05:15;;;;;;;7.73;2.20;;;5.30;99.90;;;;;;4953283;28;20256;-54
2024/01/02 08:07:40;;;;;;;6.13;1.93;;;5.20;99.90;;;;;;4942431;28;20847;-56
2024/01/02 08:10:07;;;;;;;6.37;2.47;;;5.30;99.90;;;;;;4939415;28;20210;-60
2024/01/02 08:12:33;;;;;;;4.50;2.10;;;5.30;99.90;;;;;;4955380;28;20237;-52
2024/01/02 08:14:58;;;;;;;6.57;2.20;;;5.30;99.90;;;;;;4956630;28;20318;-54
2024/01/02 08:17:24;;;;;;;9.10;2.63;;;5.30;99.90;;;;;;4961759;28;20237;-54
2024/01/02 08:19:53;;;;;;;6.33;2.57;;;5.30;99.90;;;;;;4957548;28;20212;-55
2024/01/02 08:22:19;;;;;;;6.30;1.80;;;5.30;99.90;;;;;;4957028;28;20198;-54
2024/01/02 08:24:45;;;;;;;8.73;2.43;;;5.30;99.90;;;;;;4957320;28;20216;-56
2024/01/02 08:27:10;;;;;;;4.00;1.20;;;5.30;99.90;;;;;;4957257;28;20203;-53
2024/01/02 08:29:36;;;;;;;10.23;2.23;;;5.40;99.90;;;;;;4953393;28;20198;-53
2024/01/02 08:32:02;;;;;;;4.27;2.17;;;5.30;99.90;;;;;;4953057;28;20206;-54
2024/01/02 08:34:28;;;;;;;3.13;1.87;;;5.40;99.90;;;;;;4955979;28;20210;-54
2024/01/02 08:36:53;;;;;;;5.60;2.30;;;5.40;99.90;;;;;;4953987;28;20220;-56
2024/01/02 08:39:19;;;;;;;6.07;1.60;;;5.60;99.90;;;;;;4952630;28;20234;-54
2024/01/02 08:41:44;;;;;;;5.63;1.97;;;5.50;99.90;;;;;;4955918;28;20204;-54
2024/01/02 08:44:10;;;;;;;2.43;2.07;;;5.50;99.90;;;;;;4958551;28;20546;-54
2024/01/02 08:46:35;;;;;;;5.93;2.00;;;5.50;99.90;;;;;;4962626;28;20231;-54
2024/01/02 08:49:01;;;;;;;5.60;1.50;;;5.50;99.90;;;;;;4956743;28;20208;-54
2024/01/02 08:51:26;;;;;;;4.57;1.60;;;5.60;99.90;;;;;;4959762;28;20209;-57
2024/01/02 08:53:52;;;;;;;4.50;1.83;;;5.60;99.90;;;;;;4943955;28;20236;-55
2024/01/02 08:56:18;;;;;;;3.70;1.80;;;5.60;99.90;;;;;;4964341;28;20203;-54
2024/01/02 08:58:43;;;;;;;4.83;1.93;;;5.60;99.90;;;;;;4959158;28;20201;-55
2024/01/02 09:01:12;;;;;;;5.67;1.70;;;5.50;99.90;;;;;;4958782;28;20671;-54
2024/01/02 09:03:38;;;;;;;5.07;1.87;;;5.60;99.90;;;;;;4956570;28;20245;-67
2024/01/02 09:06:04;;;;;;;4.60;1.70;;;5.60;99.90;;;;;;4961064;28;20747;-65
2024/01/02 09:08:29;;;;;;;8.60;1.80;;;5.60;99.90;;;;;;4956030;28;20210;-54
2024/01/02 09:10:56;;;;;;;2.33;1.87;;;5.50;99.90;;;;;;4959528;28;20258;-54
2024/01/02 09:13:21;;;;;;;2.00;1.80;;;5.50;99.90;;;;;;4955579;28;20224;-55
2024/01/02 09:15:47;;;;;;;6.53;2.17;;;5.60;99.90;;;;;;4939067;28;20293;-55
2024/01/02 09:18:12;;;;;;;3.30;1.47;;;5.60;99.90;;;;;;4958908;28;20526;-63
2024/01/02 09:20:38;;;;;;;5.00;2.33;;;5.50;99.90;;;;;;4960830;28;20204;-59
2024/01/02 09:23:04;;;;;;;4.50;2.47;;;5.50;99.90;;;;;;4953061;28;20251;-55
2024/01/02 09:25:31;;;;;;;4.67;1.67;;;5.50;99.90;;;;;;4952534;28;20217;-55
2024/01/02 09:27:59;;;;;;;1.87;1.60;;;5.70;99.90;;;;;;4951332;28;20890;-55
2024/01/02 09:30:24;;;;;;;3.10;1.23;;;5.60;99.90;;;;;;4956860;28;20251;-55
2024/01/02 09:32:50;;;;;;;3.93;1.80;;;5.60;99.90;;;;;;4956129;28;20192;-55
2024/01/02 09:35:17;;;;;;;6.50;2.30;;;5.60;99.90;;;;;;4963178;28;20223;-55
2024/01/02 09:37:43;;;;;;;7.27;2.03;;;5.50;99.90;;;;;;4957041;28;20258;-64
2024/01/02 09:40:51;;;;;;;7.53;2.57;;;5.50;99.90;;;;;;4955454;28;20295;-62
2024/01/02 09:43:41;;;;;;;10.30;2.10;;;5.50;99.90;;;;;;4924114;28;20301;-57
2024/01/02 09:46:38;;;;;;;3.03;1.40;;;5.50;99.90;;;;;;4932812;28;20237;-62
2024/01/02 09:49:26;;;;;;;4.07;2.03;;;5.50;99.90;;;;;;4949231;28;20206;-56
2024/01/02 09:52:13;;;;;;;3.97;2.27;;;5.50;99.90;;;;;;4949521;28;20737;-54
2024/01/02 09:54:58;;;;;;;6.23;1.60;;;5.50;99.90;;;;;;4948863;28;20248;-57
2024/01/02 09:57:54;;;;;;;4.83;1.60;;;5.50;99.90;;;;;;4937893;28;20221;-56
2024/01/02 10:00:29;;;;;;;4.40;2.23;;;5.50;99.90;;;;;;4946378;28;20231;-53
2024/01/02 10:03:02;;;;;;;4.60;2.30;;;5.60;99.90;;;;;;4952386;28;20189;-61
2024/01/02 10:05:49;;;;;;;3.13;2.50;;;5.60;99.90;;;;;;4953983;28;20618;-60
2024/01/02 10:08:40;;;;;;;5.60;3.83;;;5.60;99.90;;;;;;4947426;28;20318;-55
2024/01/02 10:11:18;;;;;;;2.00;1.67;;;5.60;99.90;;;;;;4936333;28;20198;-55
2024/01/02 10:14:06;;;;;;;5.60;1.83;;;5.60;99.90;;;;;;4953500;28;20577;-66
2024/01/02 10:16:41;;;;;;;6.60;2.43;;;5.60;99.90;;;;;;4936181;28;20208;-55
2024/01/02 10:19:17;;;;;;;4.40;2.33;;;5.60;99.90;;;;;;4962066;28;20205;-55
2024/01/02 10:21:55;;;;;;;6.60;2.37;;;5.60;99.90;;;;;;4962921;28;20228;-55
2024/01/02 10:24:51;;;;;;;6.37;1.97;;;5.60;99.90;;;;;;4942980;28;20201;-55
2024/01/02 10:27:25;;;;;;;2.63;1.90;;;5.70;99.90;;;;;;4963971;28;20274;-56
2024/01/02 10:30:06;;;;;;;3.57;1.70;;;5.70;99.90;;;;;;4940455;28;20201;-55
2024/01/02 10:33:09;;;;;;;5.47;1.97;;;5.80;99.90;;;;;;4952524;28;20204;-55
2024/01/02 10:35:37;;;;;;;3.63;1.83;;;5.70;99.90;;;;;;4949854;28;20205;-55
2024/01/02 10:38:29;;;;;;;6.43;2.43;;;5.70;99.90;;;;;;4948893;28;20281;-55
2024/01/02 10:41:06;;;;;;;4.57;2.20;;;5.70;99.90;;;;;;4956053;28;20288;-55
2024/01/02 10:43:56;;;;;;;5.97;2.23;;;5.70;99.90;;;;;;4989146;28;20213;-55
2024/01/02 10:46:38;;;;;;;3.00;2.17;;;5.70;99.90;;;;;;4952368;28;20398;-55
2024/01/02 10:49:34;;;;;;;4.17;2.17;;;5.70;99.90;;;;;;4933880;28;20764;-69
2024/01/02 10:52:18;;;;;;;4.60;2.60;;;5.70;99.90;;;;;;4933444;28;20209;-57
2024/01/02 10:55:07;;;;;;;3.10;1.97;;;5.80;99.90;;;;;;4948366;28;20213;-55
2024/01/02 10:57:43;;;;;;;2.53;2.17;;;5.80;99.90;;;;;;4954657;28;20201;-59
2024/01/02 11:00:20;;;;;;;2.43;2.23;;;5.80;99.90;;;;;;4952496;28;20243;-56
2024/01/02 11:02:57;;;;;;;4.10;2.40;;;5.90;99.90;;;;;;4949902;28;20197;-55
2024/01/02 11:05:29;;;;;;;4.73;2.57;;;5.90;99.90;;;;;;4952428;28;20209;-55
2024/01/02 11:08:16;;;;;;;2.80;1.90;;;5.80;99.90;;;;;;4968173;28;20204;-55
2024/01/02 11:10:55;;;;;;;3.97;2.87;;;5.80;99.90;;;;;;4966562;28;20208;-55
2024/01/02 11:13:22;;;;;;;3.00;2.40;;;5.70;99.90;;;;;;4958188;28;20255;-55
2024/01/02 11:15:53;;;;;;;4.87;2.30;;;5.70;99.90;;;;;;4957961;28;20197;-55
2024/01/02 11:18:19;;;;;;;3.73;2.63;;;5.80;99.90;;;;;;4974080;28;20201;-55
2024/01/02 11:20:49;;;;;;;2.20;2.10;;;5.80;99.90;;;;;;4964488;28;20212;-55
2024/01/02 11:23:17;;;;;;;2.17;1.97;;;5.90;99.90;;;;;;4960972;28;20241;-56
2024/01/02 11:26:01;;;;;;;2.30;2.10;;;5.90;99.90;;;;;;4983064;28;20207;-56
2024/01/02 11:28:27;;;;;;;3.23;2.90;;;5.80;99.90;;;;;;4950687;28;20204;-55
2024/01/02 11:30:53;;;;;;;2.60;2.13;;;5.80;99.90;;;;;;4958262;28;20297;-56
2024/01/02 11:33:34;;;;;;;2.77;2.57;;;5.90;99.90;;;;;;4959345;28;20293;-54
2024/01/02 11:36:26;;;;;;;2.73;2.23;;;6.00;99.90;;;;;;4955023;28;20574;-57
2024/01/02 11:39:12;;;;;;;3.60;2.60;;;5.90;99.90;;;;;;4937963;28;20624;-57
2024/01/02 11:42:02;;;;;;;3.50;2.43;;;5.90;99.90;;;;;;4952600;28;20206;-54
2024/01/02 11:44:46;;;;;;;6.63;2.83;;;6.00;99.90;;;;;;4960198;28;20202;-56
2024/01/02 11:47:36;;;;;;;2.70;2.50;;;6.10;99.90;;;;;;4956101;28;20220;-55
2024/01/02 11:50:04;;;;;;;4.67;2.67;;;6.10;99.90;;;;;;4952240;28;20224;-55
2024/01/02 11:52:32;;;;;;;3.23;2.87;;;6.10;99.90;;;;;;4951716;28;20218;-57
2024/01/02 11:55:41;;;;;;;4.67;2.87;;;6.10;99.90;;;;;;4953950;28;20221;-56
2024/01/02 11:58:30;;;;;;;2.67;2.47;;;6.10;99.90;;;;;;4893456;28;20211;-54
2024/01/02 12:01:29;;;;;;;4.37;2.90;;;6.10;99.90;;;;;;4899239;29;20214;-67
2024/01/02 12:04:22;;;;;;;2.27;1.90;;;6.10;99.90;;;;;;4964054;28;20206;-57
2024/01/02 12:07:09;;;;;;;2.93;2.50;;;6.00;99.90;;;;;;4960272;28;20236;-56
2024/01/02 12:09:42;;;;;;;3.03;2.63;;;5.90;99.90;;;;;;4957592;28;20542;-56
2024/01/02 12:12:27;;;;;;;3.37;2.27;;;6.00;99.90;;;;;;4957722;28;20609;-55
2024/01/02 12:15:03;;;;;;;3.33;2.30;;;6.00;99.90;;;;;;4958510;28;20224;-56
2024/01/02 12:17:32;;;;;;;3.73;2.63;;;6.00;99.90;;;;;;4961684;28;20223;-57
2024/01/02 12:20:03;;;;;;;3.27;2.70;;;6.10;99.90;;;;;;4959831;28;20915;-56
2024/01/02 12:22:31;;;;;;;2.83;2.37;;;6.10;99.90;;;;;;4961169;28;20229;-59
2024/01/02 12:24:57;;;;;;;3.17;2.60;;;6.10;99.90;;;;;;4943562;28;20566;-55
2024/01/02 12:27:25;;;;;;;3.07;2.70;;;6.20;99.90;;;;;;4945424;28;20248;-56
2024/01/02 12:30:02;;;;;;;2.63;2.33;;;6.10;99.90;;;;;;4961677;28;20254;-55
2024/01/02 12:32:42;;;;;;;2.77;2.57;;;6.10;99.90;;;;;;4960316;28;20205;-55
2024/01/02 12:35:12;;;;;;;3.13;2.57;;;6.10;99.90;;;;;;4956886;28;20231;-56
2024/01/02 12:37:56;;;;;;;4.27;3.10;;;6.10;99.90;;;;;;4949430;28;20201;-53
2024/01/02 12:40:23;;;;;;;2.27;2.07;;;6.20;99.90;;;;;;4958559;28;20848;-54
2024/01/02 12:42:50;;;;;;;5.40;3.43;;;6.20;99.90;;;;;;4958271;28;20236;-54
2024/01/02 12:45:21;;;;;;;3.30;3.00;;;6.00;99.90;;;;;;4960762;28;20205;-54
2024/01/02 12:47:50;;;;;;;3.63;2.70;;;6.00;99.90;;;;;;4963824;28;20189;-54
2024/01/02 12:50:20;;;;;;;3.70;2.50;;;6.10;99.90;;;;;;4938308;28;20205;-55
2024/01/02 12:52:57;;;;;;;3.33;2.53;;;6.10;99.90;;;;;;4960779;28;20258;-55
2024/01/02 12:55:24;;;;;;;8.07;3.20;;;6.10;99.90;;;;;;4962071;28;20735;-55
2024/01/02 12:57:52;;;;;;;2.93;2.63;;;6.10;99.90;;;;;;4963461;28;20209;-55
2024/01/02 13:00:20;;;;;;;4.13;2.73;;;6.10;99.90;;;;;;4959456;28;20197;-55
2024/01/02 13:02:46;;;;;;;4.13;3.30;;;6.10;99.90;;;;;;4960694;28;20228;-55
2024/01/02 13:05:13;;;;;;;3.40;3.10;;;6.20;99.90;;;;;;4958844;28;20234;-55